This is the latest recevied weather packets stored in our database for station/object TA2LKM-11. If no packets are shown the sender has not sent any weather packets the latest 10 day(s).
| Time | Temp. | Humidity | Pressure | Rain* | Wind** | Luminosity | Snow |
|---|---|---|---|---|---|---|---|
| 1788601813 | 33.89° C | 36% | 1015.7 hPa | - | - | - | - |
| 1788600911 | 32.22° C | 38% | 1015.9 hPa | - | - | - | - |
| 1788600011 | 33.33° C | 36% | 1016 hPa | - | - | - | - |
| 1788599972 | 33.89° C | 36% | 1016 hPa | - | - | - | - |
| 1788599071 | 34.44° C | 34% | 1016.2 hPa | - | - | - | - |
| 1788598170 | 33.89° C | 36% | 1016.3 hPa | - | - | - | - |
| 1788598081 | 33.89° C | 36% | 1016.3 hPa | - | - | - | - |
| 1788597180 | 34.44° C | 37% | 1016.5 hPa | - | - | - | - |
| 1788596279 | 34.44° C | 37% | 1016.5 hPa | - | - | - | - |
| 1788595378 | 34.44° C | 36% | 1016.6 hPa | - | - | - | - |
| 1788594478 | 34.44° C | 36% | 1016.7 hPa | - | - | - | - |
| 1788594389 | 33.89° C | 36% | 1016.6 hPa | - | - | - | - |
| 1788593488 | 32.22° C | 37% | 1016.7 hPa | - | - | - | - |
| 1788592588 | 28.89° C | 45% | 1016.6 hPa | - | - | - | - |
| 1788591687 | 28.33° C | 48% | 1016.6 hPa | - | - | - | - |
| 1788590786 | 32.22° C | 41% | 1016.6 hPa | - | - | - | - |
| 1788590697 | 32.78° C | 39% | 1016.7 hPa | - | - | - | - |
| 1788589796 | 33.33° C | 38% | 1017.2 hPa | - | - | - | - |
| 1788588896 | 36.67° C | 33% | 1017.2 hPa | - | - | - | - |
| 1788587995 | 33.33° C | 38% | 1017 hPa | - | - | - | - |
| 1788587094 | 37.78° C | 32% | 1017.2 hPa | - | - | - | - |
| 1788586193 | 35.56° C | 35% | 1017 hPa | - | - | - | - |
| 1788586104 | 35° C | 35% | 1017 hPa | - | - | - | - |
| 1788585204 | 34.44° C | 36% | 1017 hPa | - | - | - | - |
| 1788584303 | 33.89° C | 37% | 1016.9 hPa | - | - | - | - |
* Rain since midnight (hover to see other rain measurements)
** Current wind speed in m/s (hover to see current wind gust speed)